Terminal Aerodrome Forecast
Issued by NWS Cleveland, OH

Home | Current Version | Previous Version | Graphics & Text | Print | Product List | Glossary On
Versions: 1 2 3 4 5 6 7 8 9 10 11 12 13 14 15 16 17 18
000
FTUS41 KCLE 281126
TAFYNG
TAF
KYNG 281126Z 2812/2912 27006KT 4SM -RA BR OVC006
      TEMPO 2812/2814 3SM -RA BR OVC004
     FM281500 30011G16KT 5SM -RA BR OVC010
     FM282200 32012KT P6SM VCSH OVC012
     FM290000 28005KT P6SM OVC015
     FM290300 26004KT P6SM SCT100 BKN250=

USA.gov is the U.S. government's official web portal to all federal, state and local government web resources and services.